sensor_id;sensor_type;location;lat;lon;timestamp;temperature;humidity
13521;DHT22;6832;51.186;3.236;2022-12-05T09:36:33;8.10;90.80
13521;DHT22;6832;51.186;3.236;2022-12-05T09:39:34;8.10;90.70
13521;DHT22;6832;51.186;3.236;2022-12-05T09:45:34;8.10;90.80
13521;DHT22;6832;51.186;3.236;2022-12-05T10:02:17;8.20;90.90
13521;DHT22;6832;51.186;3.236;2022-12-05T10:22:37;8.30;91.00
13521;DHT22;6832;51.186;3.236;2022-12-05T10:25:51;8.40;91.00
13521;DHT22;6832;51.186;3.236;2022-12-05T10:29:06;8.40;91.00
13521;DHT22;6832;51.186;3.236;2022-12-05T10:32:36;8.40;91.00
13521;DHT22;6832;51.186;3.236;2022-12-05T10:35:52;8.50;91.00
13521;DHT22;6832;51.186;3.236;2022-12-05T10:38:51;8.50;91.00
13521;DHT22;6832;51.186;3.236;2022-12-05T10:41:21;8.50;91.10
13521;DHT22;6832;51.186;3.236;2022-12-05T10:43:53;8.50;90.80
13521;DHT22;6832;51.186;3.236;2022-12-05T10:46:21;8.60;91.10
13521;DHT22;6832;51.186;3.236;2022-12-05T10:48:58;8.60;91.00
13521;DHT22;6832;51.186;3.236;2022-12-05T10:51:30;8.60;91.00
13521;DHT22;6832;51.186;3.236;2022-12-05T10:54:23;8.70;91.20
13521;DHT22;6832;51.186;3.236;2022-12-05T10:56:54;8.70;91.30
13521;DHT22;6832;51.186;3.236;2022-12-05T10:59:42;8.70;91.10
13521;DHT22;6832;51.186;3.236;2022-12-05T11:03:00;8.80;91.20
13521;DHT22;6832;51.186;3.236;2022-12-05T11:05:48;8.80;91.10
13521;DHT22;6832;51.186;3.236;2022-12-05T11:15:56;8.90;91.30
13521;DHT22;6832;51.186;3.236;2022-12-05T11:19:22;8.90;91.10
13521;DHT22;6832;51.186;3.236;2022-12-05T11:26:00;9.00;90.90
13521;DHT22;6832;51.186;3.236;2022-12-05T11:28:58;9.10;90.80
13521;DHT22;6832;51.186;3.236;2022-12-05T11:31:32;9.10;90.80
13521;DHT22;6832;51.186;3.236;2022-12-05T11:34:19;9.10;90.60
13521;DHT22;6832;51.186;3.236;2022-12-05T11:37:03;9.10;90.60
13521;DHT22;6832;51.186;3.236;2022-12-05T11:39:35;9.20;90.50
13521;DHT22;6832;51.186;3.236;2022-12-05T11:42:30;9.20;90.20
13521;DHT22;6832;51.186;3.236;2022-12-05T11:45:24;9.20;90.60
13521;DHT22;6832;51.186;3.236;2022-12-05T11:48:38;9.20;90.40
13521;DHT22;6832;51.186;3.236;2022-12-05T11:51:24;9.20;90.60
13521;DHT22;6832;51.186;3.236;2022-12-05T11:57:06;9.20;90.50
13521;DHT22;6832;51.186;3.236;2022-12-05T12:00:05;9.30;90.40
13521;DHT22;6832;51.186;3.236;2022-12-05T12:03:03;9.30;90.50
13521;DHT22;6832;51.186;3.236;2022-12-05T12:05:59;9.30;90.50
13521;DHT22;6832;51.186;3.236;2022-12-05T12:09:00;9.30;90.40
13521;DHT22;6832;51.186;3.236;2022-12-05T12:11:35;9.30;90.50
13521;DHT22;6832;51.186;3.236;2022-12-05T12:14:43;9.40;90.50
13521;DHT22;6832;51.186;3.236;2022-12-05T12:17:36;9.40;90.70
13521;DHT22;6832;51.186;3.236;2022-12-05T12:20:26;9.40;90.40
13521;DHT22;6832;51.186;3.236;2022-12-05T12:23:26;9.40;90.40
13521;DHT22;6832;51.186;3.236;2022-12-05T12:26:31;9.40;90.50
13521;DHT22;6832;51.186;3.236;2022-12-05T12:29:23;9.40;90.40
13521;DHT22;6832;51.186;3.236;2022-12-05T12:32:24;9.40;90.30
13521;DHT22;6832;51.186;3.236;2022-12-05T12:36:04;9.40;90.40
13521;DHT22;6832;51.186;3.236;2022-12-05T12:39:05;9.40;90.40
13521;DHT22;6832;51.186;3.236;2022-12-05T12:42:17;9.40;90.30
13521;DHT22;6832;51.186;3.236;2022-12-05T12:45:18;9.40;90.40
13521;DHT22;6832;51.186;3.236;2022-12-05T12:48:41;9.40;90.50
13521;DHT22;6832;51.186;3.236;2022-12-05T12:51:51;9.40;90.50
13521;DHT22;6832;51.186;3.236;2022-12-05T12:58:09;9.40;90.50
13521;DHT22;6832;51.186;3.236;2022-12-05T13:00:55;9.40;90.50
13521;DHT22;6832;51.186;3.236;2022-12-05T13:03:47;9.40;90.50
13521;DHT22;6832;51.186;3.236;2022-12-05T13:09:47;9.40;90.70
13521;DHT22;6832;51.186;3.236;2022-12-05T13:12:36;9.40;90.70
13521;DHT22;6832;51.186;3.236;2022-12-05T13:18:36;9.40;90.80
13521;DHT22;6832;51.186;3.236;2022-12-05T13:21:06;9.40;91.00
13521;DHT22;6832;51.186;3.236;2022-12-05T13:23:48;9.40;91.00
13521;DHT22;6832;51.186;3.236;2022-12-05T13:26:17;9.40;91.30
13521;DHT22;6832;51.186;3.236;2022-12-05T13:28:56;9.40;91.10
13521;DHT22;6832;51.186;3.236;2022-12-05T13:31:39;9.40;91.30
13521;DHT22;6832;51.186;3.236;2022-12-05T13:34:41;9.40;91.40
13521;DHT22;6832;51.186;3.236;2022-12-05T13:37:32;9.50;91.50
13521;DHT22;6832;51.186;3.236;2022-12-05T13:40:23;9.50;91.50
13521;DHT22;6832;51.186;3.236;2022-12-05T13:43:11;9.50;91.50
13521;DHT22;6832;51.186;3.236;2022-12-05T13:45:59;9.50;91.50
13521;DHT22;6832;51.186;3.236;2022-12-05T13:48:42;9.50;92.00
13521;DHT22;6832;51.186;3.236;2022-12-05T13:51:21;9.50;91.50
13521;DHT22;6832;51.186;3.236;2022-12-05T13:54:17;9.50;91.60
13521;DHT22;6832;51.186;3.236;2022-12-05T13:56:53;9.50;91.50
13521;DHT22;6832;51.186;3.236;2022-12-05T14:00:01;9.60;91.50
13521;DHT22;6832;51.186;3.236;2022-12-05T14:06:17;9.60;91.80
13521;DHT22;6832;51.186;3.236;2022-12-05T14:12:48;9.60;91.90
13521;DHT22;6832;51.186;3.236;2022-12-05T14:15:35;9.60;91.90
13521;DHT22;6832;51.186;3.236;2022-12-05T14:18:41;9.60;91.90
13521;DHT22;6832;51.186;3.236;2022-12-05T14:28:47;9.60;92.00
13521;DHT22;6832;51.186;3.236;2022-12-05T14:32:24;9.60;92.10
13521;DHT22;6832;51.186;3.236;2022-12-05T14:38:38;9.60;92.10
13521;DHT22;6832;51.186;3.236;2022-12-05T14:52:10;9.70;92.10
13521;DHT22;6832;51.186;3.236;2022-12-05T14:55:15;9.70;91.90
13521;DHT22;6832;51.186;3.236;2022-12-05T14:58:39;9.80;92.10
13521;DHT22;6832;51.186;3.236;2022-12-05T15:01:45;9.80;92.00
13521;DHT22;6832;51.186;3.236;2022-12-05T15:05:34;9.80;92.00
13521;DHT22;6832;51.186;3.236;2022-12-05T15:08:28;9.80;92.10
13521;DHT22;6832;51.186;3.236;2022-12-05T15:11:22;9.80;91.90
13521;DHT22;6832;51.186;3.236;2022-12-05T15:14:08;9.80;91.70
13521;DHT22;6832;51.186;3.236;2022-12-05T15:16:56;9.80;91.80
13521;DHT22;6832;51.186;3.236;2022-12-05T15:19:38;9.80;91.70
13521;DHT22;6832;51.186;3.236;2022-12-05T15:22:27;9.80;91.60
13521;DHT22;6832;51.186;3.236;2022-12-05T15:25:32;9.80;91.80
13521;DHT22;6832;51.186;3.236;2022-12-05T15:28:26;9.80;91.80
13521;DHT22;6832;51.186;3.236;2022-12-05T15:31:01;9.80;91.80
13521;DHT22;6832;51.186;3.236;2022-12-05T15:33:40;9.80;91.60
13521;DHT22;6832;51.186;3.236;2022-12-05T15:36:28;9.80;91.70
13521;DHT22;6832;51.186;3.236;2022-12-05T15:39:28;9.80;91.70
13521;DHT22;6832;51.186;3.236;2022-12-05T15:42:02;9.80;91.70
13521;DHT22;6832;51.186;3.236;2022-12-05T15:44:51;9.80;91.60
13521;DHT22;6832;51.186;3.236;2022-12-05T15:47:45;9.80;91.70
13521;DHT22;6832;51.186;3.236;2022-12-05T15:50:56;9.80;91.60
13521;DHT22;6832;51.186;3.236;2022-12-05T15:54:10;9.80;91.60
13521;DHT22;6832;51.186;3.236;2022-12-05T16:00:30;9.80;91.70
13521;DHT22;6832;51.186;3.236;2022-12-05T16:06:46;9.80;91.60
13521;DHT22;6832;51.186;3.236;2022-12-05T16:09:45;9.80;91.70
13521;DHT22;6832;51.186;3.236;2022-12-05T16:12:48;9.80;91.60
13521;DHT22;6832;51.186;3.236;2022-12-05T16:38:05;9.80;91.50
13521;DHT22;6832;51.186;3.236;2022-12-05T16:40:59;9.80;91.50
13521;DHT22;6832;51.186;3.236;2022-12-05T16:43:42;9.80;91.60
13521;DHT22;6832;51.186;3.236;2022-12-05T16:46:47;9.80;91.60
13521;DHT22;6832;51.186;3.236;2022-12-05T16:49:33;9.80;91.60
13521;DHT22;6832;51.186;3.236;2022-12-05T16:52:17;9.80;91.50
13521;DHT22;6832;51.186;3.236;2022-12-05T16:57:58;9.80;91.60
13521;DHT22;6832;51.186;3.236;2022-12-05T17:00:31;9.80;91.40
13521;DHT22;6832;51.186;3.236;2022-12-05T17:03:15;9.80;91.40
13521;DHT22;6832;51.186;3.236;2022-12-05T17:06:02;9.80;91.50
13521;DHT22;6832;51.186;3.236;2022-12-05T17:08:44;9.80;91.40
13521;DHT22;6832;51.186;3.236;2022-12-05T17:11:25;9.80;91.20
13521;DHT22;6832;51.186;3.236;2022-12-05T17:14:11;9.80;91.40
13521;DHT22;6832;51.186;3.236;2022-12-05T17:16:40;9.80;91.50
13521;DHT22;6832;51.186;3.236;2022-12-05T17:19:33;9.90;91.30
13521;DHT22;6832;51.186;3.236;2022-12-05T17:22:09;9.80;91.40
13521;DHT22;6832;51.186;3.236;2022-12-05T17:24:56;9.90;91.40
13521;DHT22;6832;51.186;3.236;2022-12-05T17:27:36;9.80;91.30
13521;DHT22;6832;51.186;3.236;2022-12-05T17:30:11;9.90;91.30
13521;DHT22;6832;51.186;3.236;2022-12-05T17:32:45;9.90;91.30
13521;DHT22;6832;51.186;3.236;2022-12-05T17:35:20;9.80;91.20
13521;DHT22;6832;51.186;3.236;2022-12-05T17:38:16;9.80;91.30
13521;DHT22;6832;51.186;3.236;2022-12-05T17:41:10;9.80;91.40
13521;DHT22;6832;51.186;3.236;2022-12-05T17:44:08;9.80;91.50
13521;DHT22;6832;51.186;3.236;2022-12-05T17:47:10;9.80;91.40
13521;DHT22;6832;51.186;3.236;2022-12-05T17:53:27;9.80;91.50
13521;DHT22;6832;51.186;3.236;2022-12-05T17:56:30;9.80;91.40
13521;DHT22;6832;51.186;3.236;2022-12-05T17:59:14;9.90;91.30
13521;DHT22;6832;51.186;3.236;2022-12-05T18:05:09;9.80;91.40
13521;DHT22;6832;51.186;3.236;2022-12-05T18:08:20;9.80;91.20
13521;DHT22;6832;51.186;3.236;2022-12-05T18:11:55;9.80;91.40
13521;DHT22;6832;51.186;3.236;2022-12-05T21:30:03;9.40;91.30
13521;DHT22;6832;51.186;3.236;2022-12-05T21:33:12;9.30;91.20
